Overview Statistics Trail Chart Weather Telemetry Raw packets
 

This is the latest recevied weather packets stored in our database for station/object K6CED. If no packets are shown the sender has not sent any weather packets the latest 10 day(s).

<< 87 88 89 90 91 92 93 >>
Time Temp. Humidity Pressure Rain* Wind** Luminosity Snow
1788024077 33.33° C 40% 1016 hPa 0 mm - 675 W/m² -
1788023772 33.33° C 41% 1016.1 hPa 0 mm - 662 W/m² -
1788023468 32.78° C 42% 1016.3 hPa 0 mm - 646 W/m² -
1788023162 32.78° C 43% 1016.2 hPa 0 mm - 637 W/m² -
1788022857 32.22° C 44% 1016.2 hPa 0 mm - 617 W/m² -
1788022554 32.22° C 43% 1016.2 hPa 0 mm - 600 W/m² -
1788022250 31.11° C 45% 1016.3 hPa 0 mm - 578 W/m² -
1788021948 31.67° C 44% 1016.4 hPa 0 mm - 560 W/m² -
1788021643 32.22° C 43% 1016.2 hPa 0 mm - 546 W/m² -
1788021340 31.67° C 44% 1016.2 hPa 0 mm - 535 W/m² -
1788021036 31.67° C 43% 1016.4 hPa 0 mm - 523 W/m² -
1788020731 31.11° C 46% 1016.2 hPa 0 mm - 513 W/m² -
1788020421 30.56° C 47% 1016 hPa 0 mm - 499 W/m² -
1788020116 30° C 49% 1016.2 hPa 0 mm - 484 W/m² -
1788019816 29.44° C 50% 1016.3 hPa 0 mm - 469 W/m² -
1788019516 30.56° C 48% 1016.3 hPa 0 mm - 452 W/m² -
1788019215 29.44° C 50% 1016.1 hPa 0 mm - 273 W/m² -
1788018914 29.44° C 51% 1016.3 hPa 0 mm - 415 W/m² -
1788018609 29.44° C 51% 1016.3 hPa 0 mm - 398 W/m² -
1788018308 29.44° C 52% 1016.3 hPa 0 mm - 382 W/m² -
1788018004 28.89° C 53% 1016.3 hPa 0 mm - 361 W/m² -
1788017700 28.33° C 55% 1016.4 hPa 0 mm - 341 W/m² -
1788017396 27.22° C 58% 1016.3 hPa 0 mm - 318 W/m² -
1788017093 27.22° C 58% 1016.4 hPa 0 mm - 301 W/m² -
1788016792 26.67° C 59% 1016.3 hPa 0 mm - 284 W/m² -

* Rain latest hour (hover to see other rain measurements)
** Current wind speed in m/s (hover to see current wind gust speed)